EDW267 LPMA-LSZH
Flight info
| Callsign | EDW267 |
|---|---|
| Flight time | N/A |
| Altitude | 36000 |
| Route | DEGUN DCT NASAS DCT FTM DCT TOSDI/N0449F380 DCT ZMR N976 DGO T429 TOPTU DCT TOU DCT GAI DCT MEN DCT NINUN DCT LATAM DCT ETREK DCT LTP/N0431F340 DCT SOPLO DCT OMASI DCT KINNI DCT LAMUR DCT GUDAX Z57 DOPIL |
| Aircraft | A320/M-SDE3FGHIRWY/LB1 |
Departure
| Time | N/A |
|---|---|
| Airport | Cristiano Ronaldo International Airport (LPMA) |
Arrival
| Time | 2026-05-05 18:49 |
|---|---|
| Airport | Zürich Airport (LSZH) |
| Time | Latitude | Longitude | Altitude | Speed | Heading |
|---|---|---|---|---|---|
| 2026-05-05 16:37 | 38.94226 | -9.51883 | 36109 ft | 489 kts | 41° |
| 2026-05-05 16:37 | 38.96533 | -9.48671 | 36107 ft | 489 kts | 41° |
| 2026-05-05 16:38 | 39.01147 | -9.42234 | 36104 ft | 490 kts | 41° |
| 2026-05-05 16:38 | 39.05755 | -9.35781 | 36104 ft | 490 kts | 42° |
| 2026-05-05 16:39 | 39.10355 | -9.29311 | 36102 ft | 490 kts | 42° |
| 2026-05-05 16:39 | 39.14959 | -9.22834 | 36094 ft | 490 kts | 42° |
| 2026-05-05 16:40 | 39.19553 | -9.16360 | 36094 ft | 489 kts | 42° |
| 2026-05-05 16:40 | 39.24140 | -9.09875 | 36094 ft | 489 kts | 42° |
| 2026-05-05 16:41 | 39.28722 | -9.03380 | 36091 ft | 489 kts | 42° |
| 2026-05-05 16:41 | 39.33208 | -8.97016 | 36089 ft | 489 kts | 42° |
| 2026-05-05 16:42 | 39.37752 | -8.90565 | 36085 ft | 489 kts | 42° |
| 2026-05-05 16:42 | 39.42323 | -8.84053 | 36085 ft | 489 kts | 43° |
| 2026-05-05 16:43 | 39.46892 | -8.77526 | 36081 ft | 489 kts | 43° |
| 2026-05-05 16:43 | 39.51457 | -8.70998 | 36078 ft | 489 kts | 43° |
| 2026-05-05 16:44 | 39.56022 | -8.64462 | 36074 ft | 489 kts | 43° |
| 2026-05-05 16:44 | 39.60581 | -8.57904 | 36071 ft | 489 kts | 43° |
| 2026-05-05 16:45 | 39.65137 | -8.51337 | 36070 ft | 490 kts | 43° |
| 2026-05-05 16:45 | 39.69622 | -8.44659 | 36062 ft | 492 kts | 45° |
| 2026-05-05 16:46 | 39.73921 | -8.37733 | 36058 ft | 493 kts | 47° |
| 2026-05-05 16:46 | 39.78153 | -8.30714 | 36057 ft | 493 kts | 47° |
| 2026-05-05 16:47 | 39.82423 | -8.23727 | 36054 ft | 493 kts | 46° |
| 2026-05-05 16:47 | 39.86732 | -8.16773 | 36348 ft | 493 kts | 46° |
| 2026-05-05 16:48 | 39.88886 | -8.13301 | 36558 ft | 493 kts | 46° |
| 2026-05-05 16:48 | 39.91038 | -8.09822 | 36761 ft | 493 kts | 46° |
| 2026-05-05 16:48 | 39.93180 | -8.06342 | 36955 ft | 492 kts | 47° |
| 2026-05-05 16:48 | 39.95315 | -8.02862 | 37161 ft | 492 kts | 47° |
| 2026-05-05 16:49 | 39.97446 | -7.99381 | 37349 ft | 491 kts | 47° |
| 2026-05-05 16:49 | 39.99576 | -7.95896 | 37533 ft | 491 kts | 47° |
| 2026-05-05 16:49 | 40.01703 | -7.92413 | 37697 ft | 490 kts | 47° |
| 2026-05-05 16:49 | 40.03825 | -7.88935 | 37858 ft | 490 kts | 47° |
| 2026-05-05 16:50 | 40.05917 | -7.85503 | 38010 ft | 490 kts | 47° |
| 2026-05-05 16:50 | 40.08065 | -7.81980 | 38037 ft | 490 kts | 47° |
| 2026-05-05 16:50 | 40.12281 | -7.75066 | 38030 ft | 490 kts | 47° |
| 2026-05-05 16:51 | 40.16516 | -7.68089 | 38022 ft | 490 kts | 48° |
| 2026-05-05 16:51 | 40.20751 | -7.61095 | 38027 ft | 490 kts | 48° |
| 2026-05-05 16:52 | 40.24983 | -7.54096 | 38022 ft | 491 kts | 48° |
| 2026-05-05 16:52 | 40.29210 | -7.47078 | 38031 ft | 491 kts | 48° |
| 2026-05-05 16:53 | 40.33440 | -7.40043 | 38027 ft | 491 kts | 48° |
| 2026-05-05 16:53 | 40.37671 | -7.33014 | 38026 ft | 492 kts | 48° |
| 2026-05-05 16:54 | 40.41905 | -7.25955 | 38019 ft | 492 kts | 48° |
| 2026-05-05 16:54 | 40.46125 | -7.18881 | 38031 ft | 492 kts | 49° |
| 2026-05-05 16:55 | 40.50342 | -7.11803 | 38016 ft | 492 kts | 49° |
| 2026-05-05 16:55 | 40.54565 | -7.04712 | 38034 ft | 492 kts | 49° |
| 2026-05-05 16:56 | 40.58778 | -6.97609 | 38011 ft | 493 kts | 49° |
| 2026-05-05 16:56 | 40.62986 | -6.90496 | 38014 ft | 493 kts | 49° |
| 2026-05-05 16:57 | 40.67202 | -6.83367 | 38020 ft | 493 kts | 49° |
| 2026-05-05 16:57 | 40.71413 | -6.76238 | 38019 ft | 493 kts | 49° |
| 2026-05-05 16:58 | 40.75624 | -6.69086 | 38020 ft | 494 kts | 49° |
| 2026-05-05 16:58 | 40.79826 | -6.61920 | 38022 ft | 494 kts | 49° |
| 2026-05-05 16:59 | 40.84024 | -6.54727 | 38018 ft | 494 kts | 49° |
| 2026-05-05 16:59 | 40.88225 | -6.47537 | 38019 ft | 495 kts | 49° |
| 2026-05-05 17:00 | 40.92429 | -6.40335 | 38020 ft | 495 kts | 50° |
| 2026-05-05 17:00 | 40.96602 | -6.33158 | 38017 ft | 496 kts | 50° |
| 2026-05-05 17:01 | 41.01158 | -6.26392 | 38002 ft | 490 kts | 38° |
| 2026-05-05 17:01 | 41.06232 | -6.20356 | 38002 ft | 490 kts | 38° |
| 2026-05-05 17:02 | 41.11301 | -6.14307 | 37997 ft | 490 kts | 38° |
| 2026-05-05 17:02 | 41.16359 | -6.08257 | 37996 ft | 490 kts | 38° |
| 2026-05-05 17:03 | 41.21412 | -6.02196 | 38001 ft | 490 kts | 39° |
| 2026-05-05 17:03 | 41.26465 | -5.96117 | 38006 ft | 490 kts | 39° |
| 2026-05-05 17:04 | 41.31514 | -5.90031 | 38008 ft | 490 kts | 39° |
| 2026-05-05 17:04 | 41.36562 | -5.83937 | 38011 ft | 490 kts | 39° |
| 2026-05-05 17:05 | 41.40757 | -5.78862 | 38014 ft | 490 kts | 39° |
| 2026-05-05 17:05 | 41.45808 | -5.72751 | 38012 ft | 490 kts | 39° |
| 2026-05-05 17:06 | 41.50807 | -5.66564 | 38013 ft | 492 kts | 45° |
| 2026-05-05 17:06 | 41.54669 | -5.59015 | 38014 ft | 496 kts | 64° |
| 2026-05-05 17:07 | 41.57473 | -5.50593 | 38019 ft | 496 kts | 65° |
| 2026-05-05 17:07 | 41.60279 | -5.42167 | 38018 ft | 497 kts | 65° |
| 2026-05-05 17:08 | 41.63084 | -5.33733 | 38015 ft | 497 kts | 65° |
| 2026-05-05 17:08 | 41.65867 | -5.25285 | 38017 ft | 497 kts | 65° |
| 2026-05-05 17:09 | 41.68645 | -5.16829 | 38019 ft | 497 kts | 65° |
| 2026-05-05 17:09 | 41.71421 | -5.08370 | 38027 ft | 496 kts | 65° |
| 2026-05-05 17:10 | 41.74193 | -4.99900 | 38024 ft | 496 kts | 65° |
| 2026-05-05 17:10 | 41.76941 | -4.91490 | 38026 ft | 496 kts | 65° |
| 2026-05-05 17:11 | 41.79698 | -4.83019 | 38025 ft | 496 kts | 65° |
| 2026-05-05 17:11 | 41.82443 | -4.74534 | 38026 ft | 496 kts | 66° |
| 2026-05-05 17:12 | 41.85179 | -4.66044 | 38027 ft | 496 kts | 66° |
| 2026-05-05 17:12 | 41.87914 | -4.57553 | 38029 ft | 496 kts | 66° |
| 2026-05-05 17:13 | 41.90637 | -4.49056 | 38033 ft | 495 kts | 66° |
| 2026-05-05 17:13 | 41.93353 | -4.40557 | 38025 ft | 495 kts | 66° |
| 2026-05-05 17:14 | 41.96065 | -4.32060 | 38034 ft | 495 kts | 66° |
| 2026-05-05 17:14 | 41.98771 | -4.23558 | 38034 ft | 495 kts | 66° |
| 2026-05-05 17:15 | 42.01460 | -4.15049 | 38036 ft | 494 kts | 66° |
| 2026-05-05 17:15 | 42.04183 | -4.06566 | 38039 ft | 494 kts | 65° |
| 2026-05-05 17:16 | 42.07138 | -3.98236 | 38039 ft | 493 kts | 63° |
| 2026-05-05 17:16 | 42.10165 | -3.89957 | 38040 ft | 493 kts | 63° |
| 2026-05-05 17:17 | 42.13124 | -3.81638 | 38052 ft | 493 kts | 64° |
| 2026-05-05 17:17 | 42.16006 | -3.73344 | 38010 ft | 483 kts | 63° |
| 2026-05-05 17:18 | 42.18827 | -3.65202 | 38009 ft | 483 kts | 63° |
| 2026-05-05 17:18 | 42.21700 | -3.56942 | 38016 ft | 484 kts | 63° |
| 2026-05-05 17:19 | 42.24549 | -3.48785 | 38024 ft | 484 kts | 63° |
| 2026-05-05 17:19 | 42.27454 | -3.40569 | 38027 ft | 485 kts | 63° |
| 2026-05-05 17:20 | 42.30364 | -3.32353 | 38037 ft | 485 kts | 63° |
| 2026-05-05 17:20 | 42.33266 | -3.24105 | 38037 ft | 486 kts | 63° |
| 2026-05-05 17:21 | 42.36158 | -3.15855 | 38039 ft | 486 kts | 63° |
| 2026-05-05 17:22 | 42.40491 | -3.03445 | 38036 ft | 487 kts | 63° |
| 2026-05-05 17:22 | 42.43379 | -2.95166 | 38038 ft | 487 kts | 63° |
| 2026-05-05 17:23 | 42.46256 | -2.86869 | 38033 ft | 487 kts | 64° |
| 2026-05-05 17:23 | 42.49117 | -2.78565 | 38035 ft | 487 kts | 64° |
| 2026-05-05 17:24 | 42.51966 | -2.70309 | 38035 ft | 487 kts | 64° |
| 2026-05-05 17:24 | 42.54831 | -2.61994 | 38034 ft | 487 kts | 64° |
| 2026-05-05 17:25 | 42.57687 | -2.53676 | 38024 ft | 487 kts | 64° |
| 2026-05-05 17:25 | 42.60537 | -2.45346 | 38016 ft | 486 kts | 64° |
| 2026-05-05 17:26 | 42.63376 | -2.37016 | 38016 ft | 486 kts | 64° |
| 2026-05-05 17:26 | 42.66221 | -2.28630 | 37989 ft | 488 kts | 64° |
| 2026-05-05 17:27 | 42.69045 | -2.20279 | 37998 ft | 485 kts | 64° |
| 2026-05-05 17:27 | 42.71858 | -2.11932 | 37984 ft | 485 kts | 64° |
| 2026-05-05 17:28 | 42.74666 | -2.03597 | 37988 ft | 485 kts | 64° |
| 2026-05-05 17:28 | 42.77474 | -1.95239 | 38006 ft | 486 kts | 64° |
| 2026-05-05 17:29 | 42.80252 | -1.86928 | 38013 ft | 486 kts | 65° |
| 2026-05-05 17:29 | 42.83050 | -1.78545 | 38015 ft | 486 kts | 65° |
| 2026-05-05 17:30 | 42.85845 | -1.70156 | 38022 ft | 486 kts | 65° |
| 2026-05-05 17:30 | 42.88633 | -1.61758 | 38020 ft | 486 kts | 65° |
| 2026-05-05 17:31 | 42.91413 | -1.53353 | 38012 ft | 486 kts | 65° |
| 2026-05-05 17:31 | 42.94181 | -1.44929 | 38007 ft | 486 kts | 65° |
| 2026-05-05 17:32 | 42.96942 | -1.36508 | 37993 ft | 486 kts | 65° |
| 2026-05-05 17:32 | 42.99701 | -1.28077 | 37987 ft | 486 kts | 65° |
| 2026-05-05 17:33 | 43.02439 | -1.19700 | 37988 ft | 486 kts | 65° |
| 2026-05-05 17:33 | 43.05186 | -1.11257 | 37987 ft | 486 kts | 66° |
| 2026-05-05 17:34 | 43.07926 | -1.02808 | 38002 ft | 486 kts | 66° |
| 2026-05-05 17:34 | 43.10662 | -0.94341 | 37997 ft | 487 kts | 66° |
| 2026-05-05 17:35 | 43.13389 | -0.85862 | 37986 ft | 487 kts | 66° |
| 2026-05-05 17:35 | 43.16116 | -0.77375 | 37982 ft | 487 kts | 66° |
| 2026-05-05 17:36 | 43.18816 | -0.68938 | 37989 ft | 487 kts | 66° |
| 2026-05-05 17:36 | 43.21532 | -0.60432 | 37994 ft | 487 kts | 66° |
| 2026-05-05 17:37 | 43.24245 | -0.51915 | 37984 ft | 488 kts | 66° |
| 2026-05-05 17:37 | 43.26957 | -0.43379 | 37987 ft | 488 kts | 66° |
| 2026-05-05 17:38 | 43.29657 | -0.34831 | 37985 ft | 488 kts | 66° |
| 2026-05-05 17:38 | 43.32352 | -0.26269 | 37989 ft | 488 kts | 66° |
| 2026-05-05 17:39 | 43.35045 | -0.17700 | 37996 ft | 489 kts | 67° |
| 2026-05-05 17:39 | 43.37713 | -0.09170 | 38015 ft | 489 kts | 67° |
| 2026-05-05 17:40 | 43.40396 | -0.00567 | 38011 ft | 489 kts | 67° |
| 2026-05-05 17:40 | 43.43073 | 0.08034 | 38012 ft | 489 kts | 67° |
| 2026-05-05 17:41 | 43.45737 | 0.16646 | 38003 ft | 489 kts | 67° |
| 2026-05-05 17:41 | 43.48388 | 0.25258 | 37995 ft | 489 kts | 67° |
| 2026-05-05 17:42 | 43.51036 | 0.33874 | 37993 ft | 489 kts | 67° |
| 2026-05-05 17:42 | 43.53686 | 0.42498 | 37995 ft | 489 kts | 67° |
| 2026-05-05 17:43 | 43.56329 | 0.51126 | 38002 ft | 489 kts | 67° |
| 2026-05-05 17:43 | 43.58965 | 0.59762 | 37998 ft | 488 kts | 68° |
| 2026-05-05 17:44 | 43.61590 | 0.68401 | 37991 ft | 488 kts | 68° |
| 2026-05-05 17:44 | 43.64213 | 0.77040 | 37735 ft | 487 kts | 68° |
| 2026-05-05 17:44 | 43.65514 | 0.81335 | 37420 ft | 484 kts | 68° |
| 2026-05-05 17:45 | 43.66809 | 0.85618 | 37109 ft | 483 kts | 68° |
| 2026-05-05 17:45 | 43.68097 | 0.89902 | 36800 ft | 483 kts | 68° |
| 2026-05-05 17:45 | 43.69380 | 0.94186 | 36494 ft | 483 kts | 68° |
| 2026-05-05 17:45 | 43.70662 | 0.98470 | 36198 ft | 483 kts | 68° |
| 2026-05-05 17:46 | 43.71943 | 1.02759 | 35953 ft | 482 kts | 69° |
| 2026-05-05 17:46 | 43.74506 | 1.11328 | 35966 ft | 483 kts | 69° |
| 2026-05-05 17:47 | 43.77047 | 1.19855 | 35974 ft | 483 kts | 69° |
| 2026-05-05 17:47 | 43.79594 | 1.28456 | 35971 ft | 483 kts | 69° |
| 2026-05-05 17:48 | 43.82141 | 1.37072 | 35971 ft | 483 kts | 69° |
| 2026-05-05 17:48 | 43.84683 | 1.45689 | 35969 ft | 483 kts | 69° |
| 2026-05-05 17:49 | 43.87220 | 1.54319 | 35965 ft | 484 kts | 69° |
| 2026-05-05 17:49 | 43.89749 | 1.62961 | 35965 ft | 484 kts | 69° |
| 2026-05-05 17:50 | 43.92272 | 1.71608 | 35962 ft | 484 kts | 69° |
| 2026-05-05 17:50 | 43.94813 | 1.80262 | 35966 ft | 485 kts | 66° |
| 2026-05-05 17:51 | 43.98330 | 1.88240 | 35963 ft | 486 kts | 56° |
| 2026-05-05 17:51 | 44.02185 | 1.95947 | 35961 ft | 486 kts | 56° |
| 2026-05-05 17:52 | 44.06027 | 2.03685 | 35963 ft | 486 kts | 56° |
| 2026-05-05 17:52 | 44.09860 | 2.11434 | 35962 ft | 487 kts | 56° |
| 2026-05-05 17:53 | 44.13678 | 2.19141 | 35964 ft | 487 kts | 56° |
| 2026-05-05 17:53 | 44.17510 | 2.26910 | 35962 ft | 487 kts | 56° |
| 2026-05-05 17:54 | 44.21342 | 2.34698 | 35958 ft | 487 kts | 56° |
| 2026-05-05 17:54 | 44.25164 | 2.42497 | 35951 ft | 487 kts | 56° |
| 2026-05-05 17:55 | 44.28981 | 2.50316 | 35950 ft | 487 kts | 56° |
| 2026-05-05 17:55 | 44.32801 | 2.58130 | 35950 ft | 488 kts | 56° |
| 2026-05-05 17:56 | 44.36621 | 2.65963 | 35949 ft | 488 kts | 56° |
| 2026-05-05 17:56 | 44.40431 | 2.73816 | 35953 ft | 488 kts | 56° |
| 2026-05-05 17:57 | 44.44213 | 2.81621 | 35953 ft | 488 kts | 56° |
| 2026-05-05 17:57 | 44.48015 | 2.89496 | 35951 ft | 488 kts | 57° |
| 2026-05-05 17:58 | 44.51804 | 2.97383 | 35951 ft | 488 kts | 57° |
| 2026-05-05 17:58 | 44.55595 | 3.05282 | 35951 ft | 488 kts | 57° |
| 2026-05-05 17:59 | 44.59384 | 3.13184 | 35947 ft | 488 kts | 57° |
| 2026-05-05 17:59 | 44.63039 | 3.21208 | 35949 ft | 488 kts | 60° |
| 2026-05-05 18:00 | 44.66341 | 3.29520 | 35949 ft | 487 kts | 63° |
| 2026-05-05 18:00 | 44.69545 | 3.37912 | 35945 ft | 487 kts | 62° |
| 2026-05-05 18:01 | 44.72818 | 3.46255 | 35937 ft | 488 kts | 62° |
| 2026-05-05 18:01 | 44.75591 | 3.53165 | 35936 ft | 488 kts | 61° |
| 2026-05-05 18:02 | 44.78926 | 3.61472 | 35933 ft | 488 kts | 62° |
| 2026-05-05 18:02 | 44.82238 | 3.69807 | 35928 ft | 488 kts | 62° |
| 2026-05-05 18:03 | 44.85528 | 3.78166 | 35925 ft | 488 kts | 62° |
| 2026-05-05 18:03 | 44.88812 | 3.86528 | 35918 ft | 487 kts | 62° |
| 2026-05-05 18:04 | 44.92091 | 3.94895 | 35917 ft | 488 kts | 62° |
| 2026-05-05 18:04 | 44.95364 | 4.03277 | 35919 ft | 488 kts | 62° |
| 2026-05-05 18:05 | 44.98641 | 4.11675 | 35933 ft | 488 kts | 62° |
| 2026-05-05 18:05 | 45.01915 | 4.20075 | 35930 ft | 488 kts | 63° |
| 2026-05-05 18:06 | 45.05176 | 4.28492 | 35934 ft | 489 kts | 63° |
| 2026-05-05 18:06 | 45.08413 | 4.36874 | 35931 ft | 489 kts | 63° |
| 2026-05-05 18:07 | 45.11667 | 4.45328 | 35923 ft | 489 kts | 63° |
| 2026-05-05 18:07 | 45.14918 | 4.53793 | 35921 ft | 489 kts | 63° |
| 2026-05-05 18:08 | 45.18169 | 4.62275 | 35921 ft | 489 kts | 63° |
| 2026-05-05 18:08 | 45.21404 | 4.70760 | 35921 ft | 489 kts | 63° |
| 2026-05-05 18:09 | 45.24632 | 4.79248 | 35921 ft | 489 kts | 63° |
| 2026-05-05 18:09 | 45.27868 | 4.87782 | 35904 ft | 495 kts | 63° |
| 2026-05-05 18:10 | 45.31150 | 4.96471 | 35900 ft | 502 kts | 63° |
| 2026-05-05 18:10 | 45.34450 | 5.05214 | 35896 ft | 503 kts | 63° |
| 2026-05-05 18:11 | 45.37750 | 5.13988 | 35892 ft | 503 kts | 63° |
| 2026-05-05 18:11 | 45.41041 | 5.22776 | 35893 ft | 503 kts | 63° |
| 2026-05-05 18:12 | 45.44304 | 5.31520 | 35897 ft | 504 kts | 63° |
| 2026-05-05 18:12 | 45.47623 | 5.40311 | 35899 ft | 504 kts | 59° |
| 2026-05-05 18:13 | 45.52098 | 5.47979 | 35914 ft | 505 kts | 41° |
| 2026-05-05 18:13 | 45.57346 | 5.54635 | 35902 ft | 505 kts | 41° |
| 2026-05-05 18:14 | 45.62578 | 5.61328 | 35903 ft | 505 kts | 41° |
| 2026-05-05 18:14 | 45.67809 | 5.68045 | 35894 ft | 505 kts | 41° |
| 2026-05-05 18:15 | 45.73037 | 5.74767 | 35905 ft | 506 kts | 41° |
| 2026-05-05 18:15 | 45.78276 | 5.81497 | 35915 ft | 506 kts | 41° |
| 2026-05-05 18:16 | 45.83528 | 5.88244 | 35913 ft | 507 kts | 41° |
| 2026-05-05 18:16 | 45.88766 | 5.95011 | 35904 ft | 507 kts | 41° |
| 2026-05-05 18:17 | 45.94001 | 6.01814 | 35898 ft | 508 kts | 42° |
| 2026-05-05 18:17 | 45.99238 | 6.08613 | 35908 ft | 508 kts | 41° |
| 2026-05-05 18:18 | 46.04474 | 6.15430 | 35906 ft | 507 kts | 42° |
| 2026-05-05 18:18 | 46.09496 | 6.22533 | 35910 ft | 506 kts | 52° |
| 2026-05-05 18:19 | 46.13579 | 6.30777 | 35923 ft | 505 kts | 56° |
| 2026-05-05 18:19 | 46.17621 | 6.39052 | 35912 ft | 505 kts | 56° |
| 2026-05-05 18:20 | 46.21584 | 6.47174 | 35907 ft | 491 kts | 56° |
| 2026-05-05 18:20 | 46.25491 | 6.55217 | 35906 ft | 488 kts | 56° |
| 2026-05-05 18:21 | 46.29376 | 6.63245 | 35915 ft | 487 kts | 56° |
| 2026-05-05 18:21 | 46.33248 | 6.71284 | 35918 ft | 487 kts | 56° |
| 2026-05-05 18:22 | 46.37113 | 6.79330 | 35922 ft | 486 kts | 56° |
| 2026-05-05 18:22 | 46.40979 | 6.87373 | 35920 ft | 487 kts | 56° |
| 2026-05-05 18:23 | 46.44839 | 6.95442 | 35925 ft | 487 kts | 56° |
| 2026-05-05 18:23 | 46.48687 | 7.03520 | 35923 ft | 487 kts | 56° |
| 2026-05-05 18:24 | 46.52526 | 7.11616 | 35931 ft | 487 kts | 56° |
| 2026-05-05 18:24 | 46.56364 | 7.19720 | 35925 ft | 487 kts | 56° |
| 2026-05-05 18:25 | 46.60933 | 7.26869 | 35931 ft | 487 kts | 40° |
| 2026-05-05 18:25 | 46.62668 | 7.29037 | 35782 ft | 488 kts | 40° |
| 2026-05-05 18:25 | 46.66077 | 7.33316 | 34787 ft | 493 kts | 40° |
| 2026-05-05 18:25 | 46.68681 | 7.36600 | 33830 ft | 498 kts | 40° |
| 2026-05-05 18:26 | 46.71312 | 7.39925 | 32863 ft | 500 kts | 40° |
| 2026-05-05 18:26 | 46.73916 | 7.43224 | 32289 ft | 493 kts | 41° |
| 2026-05-05 18:26 | 46.76490 | 7.46492 | 31624 ft | 489 kts | 41° |
| 2026-05-05 18:26 | 46.78926 | 7.49913 | 30982 ft | 484 kts | 49° |
| 2026-05-05 18:27 | 46.81037 | 7.53701 | 30399 ft | 478 kts | 52° |
| 2026-05-05 18:27 | 46.83096 | 7.57487 | 29780 ft | 473 kts | 52° |
| 2026-05-05 18:27 | 46.84841 | 7.60689 | 29249 ft | 468 kts | 52° |
| 2026-05-05 18:27 | 46.86828 | 7.64332 | 28703 ft | 462 kts | 52° |
| 2026-05-05 18:28 | 46.90784 | 7.71593 | 27597 ft | 451 kts | 52° |
| 2026-05-05 18:28 | 46.92723 | 7.75165 | 27053 ft | 446 kts | 52° |
| 2026-05-05 18:28 | 46.94634 | 7.78695 | 26536 ft | 440 kts | 52° |
| 2026-05-05 18:29 | 46.96524 | 7.82194 | 26028 ft | 436 kts | 52° |
| 2026-05-05 18:29 | 46.98367 | 7.85605 | 25532 ft | 431 kts | 52° |
| 2026-05-05 18:29 | 47.00222 | 7.89041 | 25051 ft | 427 kts | 52° |
| 2026-05-05 18:29 | 47.02055 | 7.92441 | 24615 ft | 422 kts | 52° |
| 2026-05-05 18:30 | 47.03863 | 7.95805 | 24143 ft | 419 kts | 53° |
| 2026-05-05 18:30 | 47.05660 | 7.99148 | 23675 ft | 416 kts | 53° |
| 2026-05-05 18:30 | 47.07523 | 8.02372 | 23155 ft | 413 kts | 46° |
| 2026-05-05 18:30 | 47.09589 | 8.05282 | 22607 ft | 411 kts | 44° |
| 2026-05-05 18:31 | 47.11652 | 8.08171 | 22068 ft | 408 kts | 44° |
| 2026-05-05 18:31 | 47.13698 | 8.11041 | 21540 ft | 406 kts | 44° |
| 2026-05-05 18:31 | 47.15734 | 8.13900 | 21011 ft | 404 kts | 44° |
| 2026-05-05 18:31 | 47.17758 | 8.16745 | 20508 ft | 402 kts | 44° |
| 2026-05-05 18:32 | 47.19909 | 8.19330 | 20008 ft | 399 kts | 30° |
| 2026-05-05 18:32 | 47.22409 | 8.20891 | 19502 ft | 383 kts | 12° |
| 2026-05-05 18:32 | 47.24986 | 8.21342 | 19014 ft | 365 kts | 356° |
| 2026-05-05 18:32 | 47.27439 | 8.20884 | 18541 ft | 349 kts | 342° |
| 2026-05-05 18:33 | 47.29695 | 8.19647 | 18051 ft | 345 kts | 329° |
| 2026-05-05 18:33 | 47.31819 | 8.18066 | 17505 ft | 338 kts | 329° |
| 2026-05-05 18:33 | 47.33895 | 8.16528 | 16970 ft | 330 kts | 329° |
| 2026-05-05 18:33 | 47.35932 | 8.15015 | 16457 ft | 326 kts | 329° |
| 2026-05-05 18:34 | 47.37948 | 8.13515 | 15928 ft | 323 kts | 329° |
| 2026-05-05 18:34 | 47.39935 | 8.12035 | 15427 ft | 317 kts | 329° |
| 2026-05-05 18:34 | 47.41857 | 8.10603 | 14941 ft | 310 kts | 328° |
| 2026-05-05 18:34 | 47.43784 | 8.09159 | 14442 ft | 303 kts | 328° |
| 2026-05-05 18:35 | 47.45646 | 8.07763 | 13962 ft | 297 kts | 328° |
| 2026-05-05 18:35 | 47.47471 | 8.06397 | 13540 ft | 289 kts | 328° |
| 2026-05-05 18:35 | 47.49232 | 8.05077 | 13165 ft | 280 kts | 328° |
| 2026-05-05 18:35 | 47.50947 | 8.03794 | 12797 ft | 273 kts | 329° |
| 2026-05-05 18:36 | 47.52751 | 8.03002 | 12436 ft | 277 kts | 346° |
| 2026-05-05 18:36 | 47.54582 | 8.02190 | 12069 ft | 266 kts | 323° |
| 2026-05-05 18:36 | 47.55861 | 8.00399 | 11678 ft | 254 kts | 294° |
| 2026-05-05 18:36 | 47.56570 | 7.98032 | 11275 ft | 252 kts | 284° |
| 2026-05-05 18:37 | 47.57152 | 7.95572 | 10880 ft | 255 kts | 284° |
| 2026-05-05 18:37 | 47.57721 | 7.93095 | 10476 ft | 251 kts | 283° |
| 2026-05-05 18:37 | 47.58111 | 7.90663 | 10087 ft | 235 kts | 264° |
| 2026-05-05 18:37 | 47.57667 | 7.88462 | 9886 ft | 224 kts | 233° |
| 2026-05-05 18:38 | 47.56455 | 7.87035 | 9886 ft | 228 kts | 203° |
| 2026-05-05 18:38 | 47.54860 | 7.86820 | 9882 ft | 239 kts | 173° |
| 2026-05-05 18:38 | 47.53344 | 7.87937 | 9881 ft | 254 kts | 143° |
| 2026-05-05 18:38 | 47.52328 | 7.90145 | 9885 ft | 268 kts | 118° |
| 2026-05-05 18:39 | 47.51678 | 7.92740 | 9887 ft | 270 kts | 114° |
| 2026-05-05 18:39 | 47.51079 | 7.95379 | 9889 ft | 271 kts | 114° |
| 2026-05-05 18:39 | 47.50481 | 7.98031 | 9594 ft | 273 kts | 114° |
| 2026-05-05 18:39 | 47.49879 | 8.00698 | 9168 ft | 274 kts | 113° |
| 2026-05-05 18:40 | 47.49268 | 8.03387 | 8701 ft | 277 kts | 113° |
| 2026-05-05 18:40 | 47.48649 | 8.06067 | 8227 ft | 273 kts | 113° |
| 2026-05-05 18:40 | 47.48322 | 8.08779 | 7919 ft | 265 kts | 90° |
| 2026-05-05 18:40 | 47.48514 | 8.11508 | 7895 ft | 269 kts | 84° |
| 2026-05-05 18:41 | 47.48783 | 8.14266 | 7704 ft | 271 kts | 83° |
| 2026-05-05 18:41 | 47.49056 | 8.17007 | 7387 ft | 269 kts | 83° |
| 2026-05-05 18:41 | 47.49442 | 8.19706 | 7071 ft | 268 kts | 66° |
| 2026-05-05 18:41 | 47.50542 | 8.21868 | 7001 ft | 264 kts | 34° |
| 2026-05-05 18:42 | 47.52185 | 8.22950 | 7006 ft | 257 kts | 3° |
| 2026-05-05 18:42 | 47.53945 | 8.22875 | 6844 ft | 253 kts | 346° |
| 2026-05-05 18:42 | 47.55642 | 8.22440 | 6602 ft | 249 kts | 344° |
| 2026-05-05 18:42 | 47.57344 | 8.21976 | 6359 ft | 249 kts | 348° |
| 2026-05-05 18:43 | 47.59067 | 8.22297 | 6096 ft | 256 kts | 19° |
| 2026-05-05 18:43 | 47.60472 | 8.23831 | 5820 ft | 250 kts | 47° |
| 2026-05-05 18:43 | 47.61525 | 8.25835 | 5486 ft | 242 kts | 53° |
| 2026-05-05 18:43 | 47.62472 | 8.27861 | 5158 ft | 236 kts | 60° |
| 2026-05-05 18:44 | 47.62881 | 8.30147 | 4837 ft | 227 kts | 90° |
| 2026-05-05 18:44 | 47.62698 | 8.32389 | 4554 ft | 214 kts | 109° |
| 2026-05-05 18:44 | 47.62088 | 8.34328 | 4207 ft | 204 kts | 128° |
| 2026-05-05 18:44 | 47.61173 | 8.35823 | 4013 ft | 186 kts | 142° |
| 2026-05-05 18:45 | 47.60242 | 8.37105 | 4028 ft | 180 kts | 142° |
| 2026-05-05 18:45 | 47.59331 | 8.38359 | 4013 ft | 178 kts | 142° |
| 2026-05-05 18:45 | 47.58427 | 8.39601 | 4009 ft | 176 kts | 142° |
| 2026-05-05 18:45 | 47.57555 | 8.40803 | 3898 ft | 165 kts | 142° |
| 2026-05-05 18:46 | 47.56743 | 8.41919 | 3721 ft | 155 kts | 142° |
| 2026-05-05 18:46 | 47.55965 | 8.42986 | 3535 ft | 150 kts | 142° |
| 2026-05-05 18:46 | 47.55201 | 8.44032 | 3340 ft | 149 kts | 142° |
| 2026-05-05 18:46 | 47.54448 | 8.45064 | 3155 ft | 148 kts | 141° |
| 2026-05-05 18:47 | 47.53698 | 8.46092 | 2956 ft | 145 kts | 141° |
| 2026-05-05 18:47 | 47.52961 | 8.47101 | 2763 ft | 144 kts | 141° |
| 2026-05-05 18:47 | 47.52233 | 8.48100 | 2563 ft | 143 kts | 138° |
| 2026-05-05 18:47 | 47.51504 | 8.49089 | 2341 ft | 141 kts | 140° |
| 2026-05-05 18:48 | 47.50783 | 8.50078 | 2097 ft | 140 kts | 138° |
| 2026-05-05 18:48 | 47.50091 | 8.51060 | 1903 ft | 139 kts | 137° |
| 2026-05-05 18:48 | 47.49395 | 8.52004 | 1729 ft | 138 kts | 139° |
| 2026-05-05 18:48 | 47.48693 | 8.52959 | 1593 ft | 137 kts | 139° |
| 2026-05-05 18:49 | 47.47997 | 8.53903 | 1419 ft | 132 kts | 139° |
| 2026-05-05 18:49 | 47.47414 | 8.54679 | 1397 ft | 94 kts | 137° |
| 2026-05-05 18:49 | 47.47006 | 8.55251 | 1388 ft | 70 kts | 137° |
| 2026-05-05 18:49 | 47.46731 | 8.55600 | 1398 ft | 41 kts | 149° |
| 2026-05-05 18:50 | 47.46545 | 8.55830 | 1399 ft | 33 kts | 139° |
| 2026-05-05 18:50 | 47.46366 | 8.55960 | 1402 ft | 24 kts | 166° |
| 2026-05-05 18:50 | 47.46315 | 8.55978 | 1406 ft | 0 kts | 166° |
| 2026-05-05 18:51 | 47.46259 | 8.55996 | 1408 ft | 17 kts | 169° |
| 2026-05-05 18:51 | 47.46145 | 8.55998 | 1406 ft | 15 kts | 185° |
| 2026-05-05 18:51 | 47.46046 | 8.55983 | 1407 ft | 13 kts | 185° |
| 2026-05-05 18:52 | 47.45957 | 8.55963 | 1406 ft | 14 kts | 196° |
| 2026-05-05 18:52 | 47.45899 | 8.55933 | 1411 ft | 1 kts | 200° |
| 2026-05-05 18:53 | 47.45898 | 8.55932 | 1408 ft | 0 kts | 200° |
| 2026-05-05 18:57 | 47.45893 | 8.55930 | 1408 ft | 3 kts | 200° |
| 2026-05-05 18:57 | 47.45858 | 8.55910 | 1412 ft | 8 kts | 200° |
| 2026-05-05 18:58 | 47.45823 | 8.55891 | 1412 ft | 0 kts | 199° |
| 2026-05-05 18:59 | 47.45797 | 8.55882 | 1410 ft | 9 kts | 185° |
| 2026-05-05 18:59 | 47.45727 | 8.55869 | 1411 ft | 11 kts | 186° |
| 2026-05-05 18:59 | 47.45664 | 8.55859 | 1408 ft | 10 kts | 185° |
| 2026-05-05 19:00 | 47.45589 | 8.55848 | 1409 ft | 12 kts | 186° |
| 2026-05-05 19:00 | 47.45504 | 8.55867 | 1412 ft | 10 kts | 134° |
| 2026-05-05 19:00 | 47.45493 | 8.55974 | 1407 ft | 10 kts | 94° |
| 2026-05-05 19:00 | 47.45463 | 8.56009 | 1408 ft | 7 kts | 186° |
| 2026-05-05 19:01 | 47.45422 | 8.56003 | 1407 ft | 3 kts | 186° |
| 2026-05-05 19:01 | 47.45412 | 8.56002 | 1412 ft | 0 kts | 186° |